createdAt,value
2023-04-22T00:01:30.315Z,12.13
2023-04-22T00:06:55.493Z,9.20
2023-04-22T00:12:20.234Z,8.18
2023-04-22T00:17:46.071Z,6.13
2023-04-22T00:23:12.543Z,10.07
2023-04-22T00:28:36.659Z,9.57
2023-04-22T00:34:02.247Z,6.18
2023-04-22T00:39:26.644Z,5.30
2023-04-22T00:44:50.708Z,8.93
2023-04-22T00:50:16.078Z,9.38
2023-04-22T00:55:39.256Z,7.53
2023-04-22T01:01:02.371Z,12.15
2023-04-22T01:06:26.997Z,12.43
2023-04-22T01:11:50.011Z,13.73
2023-04-22T01:17:14.441Z,15.93
2023-04-22T01:22:42.506Z,18.25
2023-04-22T01:28:09.033Z,13.27
2023-04-22T01:33:34.921Z,9.68
2023-04-22T01:38:58.409Z,7.28
2023-04-22T01:44:24.380Z,11.73
2023-04-22T01:49:49.532Z,6.50
2023-04-22T01:55:13.307Z,11.75
2023-04-22T02:00:38.872Z,7.97
2023-04-22T02:06:03.497Z,8.77
2023-04-22T02:11:30.779Z,8.07
2023-04-22T02:16:55.708Z,7.18
2023-04-22T02:22:19.151Z,11.45
2023-04-22T02:27:44.530Z,13.73
2023-04-22T02:33:11.221Z,8.77
2023-04-22T02:38:34.271Z,12.70
2023-04-22T02:43:58.659Z,12.13
2023-04-22T02:54:53.464Z,14.73
2023-04-22T03:00:17.808Z,16.73
2023-04-22T03:05:42.162Z,11.05
2023-04-22T03:11:09.120Z,10.20
2023-04-22T03:16:34.137Z,9.02
2023-04-22T03:22:01.923Z,7.97
2023-04-22T03:27:28.852Z,19.20
2023-04-22T03:32:56.135Z,11.25
2023-04-22T03:38:25.802Z,10.60
2023-04-22T03:43:50.860Z,12.05
2023-04-22T03:49:15.427Z,15.23
2023-04-22T03:54:41.117Z,8.63
2023-04-22T04:00:07.510Z,11.05
2023-04-22T04:05:38.185Z,10.48
2023-04-22T04:11:02.041Z,15.60
2023-04-22T04:16:28.996Z,11.70
2023-04-22T04:22:00.725Z,11.63
2023-04-22T04:27:27.957Z,8.70
2023-04-22T04:32:55.888Z,10.55
2023-04-22T04:38:20.035Z,9.77
2023-04-22T04:43:46.440Z,12.65
2023-04-22T04:49:31.609Z,14.45
2023-04-22T04:54:57.540Z,13.88
2023-04-22T05:00:22.924Z,12.13
2023-04-22T05:05:49.785Z,14.98
2023-04-22T05:11:14.126Z,14.35
2023-04-22T05:16:40.344Z,12.20
2023-04-22T05:22:08.071Z,18.40
2023-04-22T05:27:32.750Z,17.90
2023-04-22T05:38:32.208Z,14.00
2023-04-22T05:43:58.983Z,13.27
2023-04-22T05:49:24.621Z,18.00
2023-04-22T05:55:14.591Z,5.75
2023-04-22T06:00:38.771Z,19.63
2023-04-22T06:06:18.449Z,12.75
2023-04-22T06:11:46.930Z,12.68
2023-04-22T06:17:12.387Z,11.82
2023-04-22T06:22:41.095Z,7.40
2023-04-22T06:28:08.797Z,10.27
2023-04-22T06:33:38.361Z,10.05
2023-04-22T06:39:07.497Z,11.20
2023-04-22T06:44:43.455Z,5.80
2023-04-22T06:50:32.045Z,7.07
2023-04-22T06:56:01.327Z,8.77
2023-04-22T07:01:31.443Z,7.97
2023-04-22T07:07:00.171Z,5.25
2023-04-22T07:12:29.884Z,8.63
2023-04-22T07:17:59.594Z,12.43
2023-04-22T07:23:24.695Z,10.80
2023-04-22T07:28:53.018Z,4.03
2023-04-22T07:34:22.656Z,5.90
2023-04-22T07:39:51.082Z,6.90
2023-04-22T07:45:16.539Z,4.53
2023-04-22T07:50:46.596Z,15.30
2023-04-22T07:56:13.900Z,2.95
2023-04-22T08:01:42.068Z,8.87
2023-04-22T08:12:39.714Z,10.88
2023-04-22T08:18:05.351Z,4.88
2023-04-22T08:23:35.413Z,9.30
2023-04-22T08:29:02.244Z,5.00
2023-04-22T08:34:27.790Z,9.20
2023-04-22T08:39:54.172Z,7.97
2023-04-22T08:45:18.266Z,3.03
2023-04-22T08:50:44.653Z,3.13
2023-04-22T08:56:11.796Z,8.25
2023-04-22T09:01:36.067Z,3.88
2023-04-22T09:07:00.980Z,4.05
2023-04-22T09:12:27.683Z,4.82
2023-04-22T09:17:52.554Z,7.60
2023-04-22T09:23:17.193Z,8.68
2023-04-22T09:28:50.678Z,1.98
2023-04-22T09:34:15.191Z,10.18
2023-04-22T09:39:42.932Z,4.35
2023-04-22T09:45:09.012Z,8.30
2023-04-22T09:50:32.644Z,3.53
2023-04-22T09:55:56.210Z,4.30
2023-04-22T10:01:21.035Z,3.45
2023-04-22T10:06:44.983Z,5.72
2023-04-22T10:12:09.307Z,3.13
2023-04-22T10:17:37.821Z,10.70
2023-04-22T10:28:29.539Z,4.93
2023-04-22T10:34:09.817Z,3.53
2023-04-22T10:39:33.716Z,7.13
2023-04-22T10:45:01.757Z,6.15
2023-04-22T10:50:27.816Z,8.15
2023-04-22T10:55:53.167Z,3.13
2023-04-22T11:01:17.554Z,16.00
2023-04-22T11:06:42.956Z,5.65
2023-04-22T11:12:25.147Z,6.60
2023-04-22T11:17:51.224Z,5.25
2023-04-22T11:23:20.673Z,6.68
2023-04-22T11:28:46.766Z,9.45
2023-04-22T11:34:11.143Z,4.72
2023-04-22T11:39:46.526Z,6.38
2023-04-22T11:45:16.249Z,5.97
2023-04-22T11:50:44.136Z,4.03
2023-04-22T11:56:09.897Z,4.38
2023-04-22T12:01:33.193Z,3.80
2023-04-22T12:06:56.979Z,10.60
2023-04-22T12:12:24.904Z,1.50
2023-04-22T12:17:50.794Z,10.07
2023-04-22T12:23:15.911Z,2.70
2023-04-22T12:28:42.808Z,5.68
2023-04-22T12:34:07.623Z,5.55
2023-04-22T12:39:32.329Z,3.88
2023-04-22T12:44:57.610Z,2.42
2023-04-22T12:50:21.619Z,11.55
2023-04-22T12:55:46.202Z,5.88
2023-04-22T13:01:11.458Z,9.23
2023-04-22T13:06:36.395Z,2.78
2023-04-22T13:12:03.032Z,6.78
2023-04-22T13:17:29.222Z,13.48
2023-04-22T13:22:55.187Z,15.98
2023-04-22T13:28:19.452Z,10.18
2023-04-22T13:33:45.176Z,10.35
2023-04-22T13:39:10.803Z,3.70
2023-04-22T13:44:35.402Z,3.38
2023-04-22T13:50:02.107Z,6.75
2023-04-22T13:55:27.673Z,3.55
2023-04-22T14:00:52.020Z,6.30
2023-04-22T14:06:17.454Z,6.65
2023-04-22T14:11:41.712Z,5.50
2023-04-22T14:17:05.818Z,2.28
2023-04-22T14:22:31.618Z,4.40
2023-04-22T14:27:56.529Z,18.85
2023-04-22T14:33:21.452Z,8.48
2023-04-22T14:38:47.852Z,6.20
2023-04-22T14:44:12.283Z,11.02
2023-04-22T14:49:36.936Z,18.55
2023-04-22T14:55:19.416Z,10.27
2023-04-22T15:00:45.948Z,5.25
2023-04-22T15:06:09.553Z,7.22
2023-04-22T15:11:34.968Z,9.32
2023-04-22T15:16:58.748Z,4.63
2023-04-22T15:22:22.603Z,10.90
2023-04-22T15:27:52.347Z,5.13
2023-04-22T15:33:17.421Z,6.43
2023-04-22T15:38:41.417Z,7.15
2023-04-22T15:44:08.769Z,5.78
2023-04-22T15:49:34.533Z,8.27
2023-04-22T15:54:58.802Z,4.65
2023-04-22T16:00:24.134Z,10.35
2023-04-22T16:05:48.872Z,9.35
2023-04-22T16:11:16.746Z,6.45
2023-04-22T16:16:42.849Z,5.43
2023-04-22T16:22:08.530Z,8.10
2023-04-22T16:27:33.374Z,6.93
2023-04-22T16:32:59.060Z,13.77
2023-04-22T16:38:22.704Z,8.57
2023-04-22T16:43:47.830Z,12.70
2023-04-22T16:49:14.423Z,12.77
2023-04-22T16:54:38.601Z,12.73
2023-04-22T17:00:02.471Z,14.80
2023-04-22T17:05:27.986Z,12.98
2023-04-22T17:10:52.481Z,7.13
2023-04-22T17:16:16.352Z,4.70
2023-04-22T17:21:41.135Z,6.35
2023-04-22T17:27:04.752Z,6.50
2023-04-22T17:32:29.979Z,6.97
2023-04-22T17:37:55.052Z,7.60
2023-04-22T17:43:19.478Z,10.43
2023-04-22T17:48:46.661Z,13.23
2023-04-22T17:54:12.300Z,9.93
2023-04-22T17:59:36.608Z,13.02
2023-04-22T18:05:01.071Z,11.82
2023-04-22T18:10:27.664Z,9.55
2023-04-22T18:15:52.008Z,14.50
2023-04-22T18:21:16.446Z,19.02
2023-04-22T18:26:44.456Z,15.85
2023-04-22T18:32:08.934Z,16.17
2023-04-22T18:37:34.587Z,14.68
2023-04-22T18:43:00.224Z,16.23
2023-04-22T18:48:24.407Z,19.08
2023-04-22T18:53:51.024Z,19.30
2023-04-22T18:59:15.987Z,19.40
2023-04-22T19:04:40.817Z,25.50
2023-04-22T19:10:07.496Z,23.08
2023-04-22T19:15:33.424Z,30.40
2023-04-22T19:20:57.699Z,19.35
2023-04-22T19:26:23.246Z,25.48
2023-04-22T19:31:48.715Z,22.17
2023-04-22T19:37:13.408Z,34.15
2023-04-22T19:42:37.733Z,24.08
2023-04-22T19:48:04.708Z,34.92
2023-04-22T19:53:30.171Z,27.80
2023-04-22T19:58:53.743Z,20.83
2023-04-22T20:04:20.004Z,20.15
2023-04-22T20:09:46.643Z,24.40
2023-04-22T20:15:11.917Z,18.38
2023-04-22T20:20:38.785Z,24.60
2023-04-22T20:26:04.600Z,29.45
2023-04-22T20:31:28.921Z,27.55
2023-04-22T20:36:54.872Z,27.88
2023-04-22T20:42:19.733Z,27.50
2023-04-22T20:47:44.709Z,28.33
2023-04-22T20:53:11.704Z,22.38
2023-04-22T20:58:37.061Z,25.23
2023-04-22T21:04:06.489Z,30.27
2023-04-22T21:09:33.083Z,23.02
2023-04-22T21:14:57.519Z,18.33
2023-04-22T21:20:24.175Z,23.23
2023-04-22T21:25:50.298Z,19.65
2023-04-22T21:31:15.684Z,20.85
2023-04-22T21:36:39.898Z,22.42
2023-04-22T21:42:08.079Z,28.05
2023-04-22T21:47:32.925Z,16.07
2023-04-22T21:52:56.930Z,17.02
2023-04-22T21:58:24.087Z,22.27
2023-04-22T22:03:48.791Z,21.27
2023-04-22T22:09:14.181Z,25.50
2023-04-22T22:20:13.252Z,23.88
2023-04-22T22:25:42.252Z,19.77
2023-04-22T22:31:07.224Z,18.80
2023-04-22T22:36:32.903Z,16.15
2023-04-22T22:41:58.265Z,20.08
2023-04-22T22:47:24.832Z,18.52
2023-04-22T22:52:49.738Z,21.25
2023-04-22T22:58:14.697Z,19.98
2023-04-22T23:03:38.720Z,18.77
2023-04-22T23:09:03.836Z,12.20
2023-04-22T23:14:28.510Z,15.90
2023-04-22T23:19:52.994Z,14.23
2023-04-22T23:25:19.913Z,12.90
2023-04-22T23:30:47.333Z,12.55
2023-04-22T23:36:14.270Z,11.35
2023-04-22T23:41:39.492Z,12.95
2023-04-22T23:47:05.326Z,13.00
2023-04-22T23:52:30.408Z,16.00
2023-04-22T23:57:57.966Z,10.00
